Observations for Trim Patrick St
| Time | AQI | Temp °C | Hum % | Pres Pa | CO μg/m³ | H₂S μg/m³ | NO μg/m³ | NO₂ μg/m³ | O₃ μg/m³ | SO₂ μg/m³ | PM1 μg/m³ | PM2.5 μg/m³ | PM10 μg/m³ |
|---|---|---|---|---|---|---|---|---|---|---|---|---|---|
| Wednesday 26 August 2026 | |||||||||||||
| 16:51 | 2 | 31 | 46 | 69,264 | 0 | 0 | 2.31 | 19.75 | 91.53 | 13.22 | 6.29 | 12.83 | 14.12 |
| 16:50 | 2 | 31 | 44 | 69,265 | 0 | 0 | 2.17 | 19.8 | 117.02 | 13.61 | 4.57 | 13.04 | 14.34 |
| 16:49 | 2 | 31.1 | 43 | 69,271 | 0 | 0 | 2.11 | 24.99 | 153.08 | 12.12 | 6.29 | 12.3 | 13.53 |
| 16:48 | 2 | 31.1 | 44 | 69,248 | 0 | 0 | 2.16 | 22.52 | 171.79 | 11.8 | 6.29 | 12.25 | 13.47 |
| 16:47 | 2 | 31.1 | 45 | 69,246 | 0 | 0 | 2.27 | 14.76 | 98.66 | 12.5 | 6.29 | 11.39 | 12.53 |
| 16:46 | 2 | 31 | 46 | 69,244 | 0 | 0 | 2.34 | 18.39 | 105.66 | 12.27 | 7.14 | 13.61 | 14.97 |
| 16:45 | 2 | 30.9 | 46 | 69,238 | 0 | 0 | 2.35 | 24.54 | 92.37 | 12.03 | 8.86 | 13.59 | 14.95 |
| 16:44 | 2 | 30.7 | 47 | 69,236 | 0 | 0 | 2.33 | 18.8 | 100.91 | 11.77 | 8.86 | 14.27 | 15.7 |
| 16:43 | 2 | 30.6 | 47 | 69,222 | 0 | 0 | 2.32 | 23.36 | 205.4 | 11.86 | 4.57 | 11.21 | 12.33 |
| 16:42 | 2 | 30.4 | 47 | 69,210 | 0 | 0 | 2.15 | 15.75 | 141.56 | 11.67 | 6.29 | 12.78 | 14.05 |
| 16:41 | 2 | 30.3 | 45 | 69,199 | 0 | 0 | 2.03 | 19.41 | 121.63 | 10.15 | 7.14 | 14.45 | 15.9 |
| 16:40 | 2 | 30.1 | 47 | 69,185 | 0 | 0 | 2.12 | 13.34 | 90.7 | 11.54 | 7.14 | 12.78 | 14.05 |
| 16:39 | 2 | 30 | 47 | 69,191 | 0 | 0 | 2.12 | 20.08 | 165.08 | 10.71 | 6.29 | 12.74 | 14.02 |
| 16:38 | 2 | 30 | 48 | 69,195 | 0 | 0 | 2.07 | 13.94 | 150.85 | 12.1 | 6.29 | 13.48 | 14.83 |
| 16:36 | 2 | 30.1 | 45 | 69,177 | 0 | 0 | 1.95 | 14.77 | 137.73 | 11.27 | 8 | 13.67 | 15.04 |
| 16:35 | 2 | 30.2 | 46 | 69,177 | 0 | 0 | 1.93 | 13.4 | 104.81 | 12.23 | 8.86 | 15.19 | 16.71 |
| 16:34 | 2 | 30.3 | 47 | 69,183 | 0 | 0 | 2.14 | 13.35 | 163.21 | 12.94 | 5.43 | 12.78 | 14.06 |
| 16:33 | 2 | 30.4 | 46 | 69,187 | 0 | 0 | 2.21 | 14.02 | 161.42 | 12.19 | 5.43 | 12.07 | 13.28 |
| 16:32 | 2 | 30.5 | 45 | 69,193 | 0 | 0 | 2.15 | 12.42 | 97.13 | 12.76 | 7.14 | 13.69 | 15.06 |
| 16:31 | 2 | 30.5 | 46 | 69,204 | 0 | 0 | 2.25 | 7.88 | 91.56 | 12.71 | 7.14 | 13.65 | 15.02 |